sensor_id;sensor_type;location;lat;lon;timestamp;P1;durP1;ratioP1;P2;durP2;ratioP2
19554;SDS011;9924;50.828;6.440;2023-07-29T00:00:47;3.75;;;1.45;;
19554;SDS011;9924;50.828;6.440;2023-07-29T00:03:13;3.22;;;1.40;;
19554;SDS011;9924;50.828;6.440;2023-07-29T00:05:39;3.13;;;1.40;;
19554;SDS011;9924;50.828;6.440;2023-07-29T00:08:05;1.67;;;1.38;;
19554;SDS011;9924;50.828;6.440;2023-07-29T00:10:31;1.70;;;1.42;;
19554;SDS011;9924;50.828;6.440;2023-07-29T00:12:58;1.50;;;1.40;;
19554;SDS011;9924;50.828;6.440;2023-07-29T00:15:24;2.85;;;1.38;;
19554;SDS011;9924;50.828;6.440;2023-07-29T00:17:49;2.25;;;1.50;;
19554;SDS011;9924;50.828;6.440;2023-07-29T00:20:15;3.95;;;2.03;;
19554;SDS011;9924;50.828;6.440;2023-07-29T00:22:41;4.40;;;1.55;;
19554;SDS011;9924;50.828;6.440;2023-07-29T00:25:07;1.80;;;1.65;;
19554;SDS011;9924;50.828;6.440;2023-07-29T00:27:33;1.40;;;1.30;;
19554;SDS011;9924;50.828;6.440;2023-07-29T00:29:58;3.38;;;1.70;;
19554;SDS011;9924;50.828;6.440;2023-07-29T00:32:24;2.08;;;1.40;;
19554;SDS011;9924;50.828;6.440;2023-07-29T00:34:52;2.47;;;1.42;;
19554;SDS011;9924;50.828;6.440;2023-07-29T00:37:18;2.17;;;1.85;;
19554;SDS011;9924;50.828;6.440;2023-07-29T00:39:43;3.63;;;2.05;;
19554;SDS011;9924;50.828;6.440;2023-07-29T00:42:09;1.48;;;1.38;;
19554;SDS011;9924;50.828;6.440;2023-07-29T00:44:35;5.95;;;2.03;;
19554;SDS011;9924;50.828;6.440;2023-07-29T00:47:01;2.35;;;1.85;;
19554;SDS011;9924;50.828;6.440;2023-07-29T00:49:28;2.92;;;1.83;;
19554;SDS011;9924;50.828;6.440;2023-07-29T00:51:54;2.60;;;2.03;;
19554;SDS011;9924;50.828;6.440;2023-07-29T00:54:19;2.05;;;1.85;;
19554;SDS011;9924;50.828;6.440;2023-07-29T00:56:45;3.83;;;1.95;;
19554;SDS011;9924;50.828;6.440;2023-07-29T00:59:11;2.40;;;2.05;;
19554;SDS011;9924;50.828;6.440;2023-07-29T01:01:38;3.15;;;1.58;;
19554;SDS011;9924;50.828;6.440;2023-07-29T01:04:04;2.22;;;1.35;;
19554;SDS011;9924;50.828;6.440;2023-07-29T01:06:34;5.93;;;1.80;;
19554;SDS011;9924;50.828;6.440;2023-07-29T01:09:18;2.50;;;1.27;;
19554;SDS011;9924;50.828;6.440;2023-07-29T01:12:22;3.67;;;1.30;;
19554;SDS011;9924;50.828;6.440;2023-07-29T01:15:13;3.65;;;1.50;;
19554;SDS011;9924;50.828;6.440;2023-07-29T01:17:43;4.80;;;1.35;;
19554;SDS011;9924;50.828;6.440;2023-07-29T01:20:16;6.75;;;1.17;;
19554;SDS011;9924;50.828;6.440;2023-07-29T01:22:42;1.40;;;1.20;;
19554;SDS011;9924;50.828;6.440;2023-07-29T01:25:09;6.93;;;1.58;;
19554;SDS011;9924;50.828;6.440;2023-07-29T01:27:34;1.80;;;1.30;;
19554;SDS011;9924;50.828;6.440;2023-07-29T01:30:00;3.78;;;1.10;;
19554;SDS011;9924;50.828;6.440;2023-07-29T01:35:47;2.63;;;1.33;;
19554;SDS011;9924;50.828;6.440;2023-07-29T01:38:24;3.75;;;1.10;;
19554;SDS011;9924;50.828;6.440;2023-07-29T01:40:56;1.60;;;1.30;;
19554;SDS011;9924;50.828;6.440;2023-07-29T01:43:27;3.00;;;1.48;;
19554;SDS011;9924;50.828;6.440;2023-07-29T01:45:54;4.38;;;1.30;;
19554;SDS011;9924;50.828;6.440;2023-07-29T01:48:20;2.08;;;1.10;;
19554;SDS011;9924;50.828;6.440;2023-07-29T01:50:45;2.17;;;1.20;;
19554;SDS011;9924;50.828;6.440;2023-07-29T01:53:11;1.40;;;1.10;;
19554;SDS011;9924;50.828;6.440;2023-07-29T01:55:38;2.67;;;1.17;;
19554;SDS011;9924;50.828;6.440;2023-07-29T01:58:04;1.65;;;0.98;;
19554;SDS011;9924;50.828;6.440;2023-07-29T02:00:30;5.15;;;0.80;;
19554;SDS011;9924;50.828;6.440;2023-07-29T02:02:56;1.27;;;0.70;;
19554;SDS011;9924;50.828;6.440;2023-07-29T02:05:21;2.83;;;0.75;;
19554;SDS011;9924;50.828;6.440;2023-07-29T02:07:47;2.58;;;0.98;;
19554;SDS011;9924;50.828;6.440;2023-07-29T02:10:13;5.13;;;0.63;;
19554;SDS011;9924;50.828;6.440;2023-07-29T02:12:39;0.85;;;0.73;;
19554;SDS011;9924;50.828;6.440;2023-07-29T02:15:05;1.75;;;0.82;;
19554;SDS011;9924;50.828;6.440;2023-07-29T02:17:31;2.13;;;0.70;;
19554;SDS011;9924;50.828;6.440;2023-07-29T02:19:56;2.70;;;0.63;;
19554;SDS011;9924;50.828;6.440;2023-07-29T02:22:22;1.52;;;0.68;;
19554;SDS011;9924;50.828;6.440;2023-07-29T02:24:48;2.10;;;0.82;;
19554;SDS011;9924;50.828;6.440;2023-07-29T02:27:13;2.85;;;0.75;;
19554;SDS011;9924;50.828;6.440;2023-07-29T02:29:40;0.77;;;0.60;;
19554;SDS011;9924;50.828;6.440;2023-07-29T02:32:06;1.17;;;0.73;;
19554;SDS011;9924;50.828;6.440;2023-07-29T02:34:32;1.95;;;0.80;;
19554;SDS011;9924;50.828;6.440;2023-07-29T02:36:57;6.35;;;1.23;;
19554;SDS011;9924;50.828;6.440;2023-07-29T02:39:23;1.55;;;0.82;;
19554;SDS011;9924;50.828;6.440;2023-07-29T02:41:49;1.33;;;1.00;;
19554;SDS011;9924;50.828;6.440;2023-07-29T02:44:15;1.13;;;1.02;;
19554;SDS011;9924;50.828;6.440;2023-07-29T02:46:41;3.38;;;1.30;;
19554;SDS011;9924;50.828;6.440;2023-07-29T02:49:06;1.80;;;1.10;;
19554;SDS011;9924;50.828;6.440;2023-07-29T02:51:32;2.13;;;1.13;;
19554;SDS011;9924;50.828;6.440;2023-07-29T02:53:58;3.30;;;1.10;;
19554;SDS011;9924;50.828;6.440;2023-07-29T02:56:24;1.25;;;1.13;;
19554;SDS011;9924;50.828;6.440;2023-07-29T02:58:49;3.13;;;1.27;;
19554;SDS011;9924;50.828;6.440;2023-07-29T03:01:17;2.78;;;1.20;;
19554;SDS011;9924;50.828;6.440;2023-07-29T03:03:43;1.70;;;1.17;;
19554;SDS011;9924;50.828;6.440;2023-07-29T03:06:09;1.83;;;1.42;;
19554;SDS011;9924;50.828;6.440;2023-07-29T03:08:36;4.00;;;1.42;;
19554;SDS011;9924;50.828;6.440;2023-07-29T03:11:12;3.35;;;2.00;;
19554;SDS011;9924;50.828;6.440;2023-07-29T03:13:39;1.55;;;1.40;;
19554;SDS011;9924;50.828;6.440;2023-07-29T03:16:13;1.83;;;1.30;;
19554;SDS011;9924;50.828;6.440;2023-07-29T03:18:40;3.78;;;1.35;;
19554;SDS011;9924;50.828;6.440;2023-07-29T03:21:06;1.63;;;1.40;;
19554;SDS011;9924;50.828;6.440;2023-07-29T03:23:33;1.52;;;1.08;;
19554;SDS011;9924;50.828;6.440;2023-07-29T03:25:59;2.13;;;1.35;;
19554;SDS011;9924;50.828;6.440;2023-07-29T03:28:27;1.92;;;1.42;;
19554;SDS011;9924;50.828;6.440;2023-07-29T03:30:54;2.65;;;1.08;;
19554;SDS011;9924;50.828;6.440;2023-07-29T03:33:20;2.45;;;1.20;;
19554;SDS011;9924;50.828;6.440;2023-07-29T03:35:46;1.50;;;1.20;;
19554;SDS011;9924;50.828;6.440;2023-07-29T03:38:12;2.03;;;1.40;;
19554;SDS011;9924;50.828;6.440;2023-07-29T03:40:39;1.42;;;1.33;;
19554;SDS011;9924;50.828;6.440;2023-07-29T03:43:06;2.30;;;1.60;;
19554;SDS011;9924;50.828;6.440;2023-07-29T03:45:32;1.83;;;1.38;;
19554;SDS011;9924;50.828;6.440;2023-07-29T03:47:58;2.75;;;1.35;;
19554;SDS011;9924;50.828;6.440;2023-07-29T03:50:24;3.55;;;1.60;;
19554;SDS011;9924;50.828;6.440;2023-07-29T03:52:50;3.10;;;1.50;;
19554;SDS011;9924;50.828;6.440;2023-07-29T03:55:16;2.50;;;1.95;;
19554;SDS011;9924;50.828;6.440;2023-07-29T03:57:41;2.17;;;1.70;;
19554;SDS011;9924;50.828;6.440;2023-07-29T04:00:07;2.65;;;1.45;;
19554;SDS011;9924;50.828;6.440;2023-07-29T04:02:34;2.17;;;1.52;;
19554;SDS011;9924;50.828;6.440;2023-07-29T04:05:02;1.80;;;1.33;;
19554;SDS011;9924;50.828;6.440;2023-07-29T04:07:29;2.92;;;1.50;;
19554;SDS011;9924;50.828;6.440;2023-07-29T04:09:55;2.25;;;1.58;;
19554;SDS011;9924;50.828;6.440;2023-07-29T04:12:21;1.65;;;1.55;;
19554;SDS011;9924;50.828;6.440;2023-07-29T04:14:47;1.38;;;1.23;;
19554;SDS011;9924;50.828;6.440;2023-07-29T04:17:13;2.20;;;1.60;;
19554;SDS011;9924;50.828;6.440;2023-07-29T04:19:38;3.03;;;1.88;;
19554;SDS011;9924;50.828;6.440;2023-07-29T04:22:04;3.00;;;1.58;;
19554;SDS011;9924;50.828;6.440;2023-07-29T04:24:30;6.15;;;1.55;;
19554;SDS011;9924;50.828;6.440;2023-07-29T04:26:55;3.22;;;1.45;;
19554;SDS011;9924;50.828;6.440;2023-07-29T04:29:21;5.50;;;1.40;;
19554;SDS011;9924;50.828;6.440;2023-07-29T04:31:48;4.03;;;1.60;;
19554;SDS011;9924;50.828;6.440;2023-07-29T04:34:18;4.03;;;1.90;;
19554;SDS011;9924;50.828;6.440;2023-07-29T04:36:44;5.22;;;1.83;;
19554;SDS011;9924;50.828;6.440;2023-07-29T04:39:11;4.40;;;1.63;;
19554;SDS011;9924;50.828;6.440;2023-07-29T04:41:36;2.40;;;1.90;;
19554;SDS011;9924;50.828;6.440;2023-07-29T04:44:02;3.72;;;1.58;;
19554;SDS011;9924;50.828;6.440;2023-07-29T04:46:28;8.10;;;1.90;;
19554;SDS011;9924;50.828;6.440;2023-07-29T04:48:53;5.43;;;2.30;;
19554;SDS011;9924;50.828;6.440;2023-07-29T04:51:19;3.08;;;1.60;;
19554;SDS011;9924;50.828;6.440;2023-07-29T04:53:45;4.35;;;1.98;;
19554;SDS011;9924;50.828;6.440;2023-07-29T04:56:11;3.95;;;1.80;;
19554;SDS011;9924;50.828;6.440;2023-07-29T04:58:36;3.88;;;2.35;;
19554;SDS011;9924;50.828;6.440;2023-07-29T05:01:03;4.60;;;2.22;;
19554;SDS011;9924;50.828;6.440;2023-07-29T05:03:29;2.63;;;1.80;;
19554;SDS011;9924;50.828;6.440;2023-07-29T05:05:55;5.93;;;2.30;;
19554;SDS011;9924;50.828;6.440;2023-07-29T05:08:21;3.10;;;2.10;;
19554;SDS011;9924;50.828;6.440;2023-07-29T05:10:50;4.22;;;2.28;;
19554;SDS011;9924;50.828;6.440;2023-07-29T05:13:16;3.53;;;2.33;;
19554;SDS011;9924;50.828;6.440;2023-07-29T05:15:43;3.30;;;2.10;;
19554;SDS011;9924;50.828;6.440;2023-07-29T05:18:08;2.53;;;1.95;;
19554;SDS011;9924;50.828;6.440;2023-07-29T05:20:34;3.85;;;2.40;;
19554;SDS011;9924;50.828;6.440;2023-07-29T05:23:00;2.95;;;2.65;;
19554;SDS011;9924;50.828;6.440;2023-07-29T05:25:26;2.88;;;2.28;;
19554;SDS011;9924;50.828;6.440;2023-07-29T05:27:52;2.88;;;2.28;;
19554;SDS011;9924;50.828;6.440;2023-07-29T05:30:18;3.33;;;2.58;;
19554;SDS011;9924;50.828;6.440;2023-07-29T05:32:43;4.20;;;2.97;;
19554;SDS011;9924;50.828;6.440;2023-07-29T05:35:09;7.13;;;2.55;;
19554;SDS011;9924;50.828;6.440;2023-07-29T05:37:37;9.68;;;2.70;;
19554;SDS011;9924;50.828;6.440;2023-07-29T05:40:04;5.05;;;2.63;;
19554;SDS011;9924;50.828;6.440;2023-07-29T05:42:32;5.18;;;3.03;;
19554;SDS011;9924;50.828;6.440;2023-07-29T05:44:57;7.47;;;3.17;;
19554;SDS011;9924;50.828;6.440;2023-07-29T05:47:23;8.18;;;3.45;;
19554;SDS011;9924;50.828;6.440;2023-07-29T05:49:49;3.40;;;3.00;;
19554;SDS011;9924;50.828;6.440;2023-07-29T05:52:15;8.40;;;3.65;;
19554;SDS011;9924;50.828;6.440;2023-07-29T05:54:41;6.32;;;3.88;;
19554;SDS011;9924;50.828;6.440;2023-07-29T05:57:08;9.60;;;3.97;;
19554;SDS011;9924;50.828;6.440;2023-07-29T05:59:35;6.90;;;3.60;;
19554;SDS011;9924;50.828;6.440;2023-07-29T06:02:00;4.75;;;3.75;;
19554;SDS011;9924;50.828;6.440;2023-07-29T06:04:26;8.98;;;4.35;;
19554;SDS011;9924;50.828;6.440;2023-07-29T06:06:52;4.53;;;3.80;;
19554;SDS011;9924;50.828;6.440;2023-07-29T06:09:17;4.78;;;3.92;;
19554;SDS011;9924;50.828;6.440;2023-07-29T06:11:43;7.68;;;4.30;;
19554;SDS011;9924;50.828;6.440;2023-07-29T06:14:09;5.05;;;3.78;;
19554;SDS011;9924;50.828;6.440;2023-07-29T06:16:35;9.35;;;4.10;;
19554;SDS011;9924;50.828;6.440;2023-07-29T06:19:00;6.30;;;4.00;;
19554;SDS011;9924;50.828;6.440;2023-07-29T06:21:26;8.60;;;3.65;;
19554;SDS011;9924;50.828;6.440;2023-07-29T06:23:52;5.53;;;3.70;;
19554;SDS011;9924;50.828;6.440;2023-07-29T06:26:18;10.57;;;3.78;;
19554;SDS011;9924;50.828;6.440;2023-07-29T06:28:43;5.68;;;3.58;;
19554;SDS011;9924;50.828;6.440;2023-07-29T06:31:09;7.05;;;3.72;;
19554;SDS011;9924;50.828;6.440;2023-07-29T06:33:35;8.07;;;3.60;;
19554;SDS011;9924;50.828;6.440;2023-07-29T06:36:00;7.22;;;3.13;;
19554;SDS011;9924;50.828;6.440;2023-07-29T06:38:26;4.00;;;3.22;;
19554;SDS011;9924;50.828;6.440;2023-07-29T06:40:52;5.68;;;2.45;;
19554;SDS011;9924;50.828;6.440;2023-07-29T06:43:17;7.45;;;2.42;;
19554;SDS011;9924;50.828;6.440;2023-07-29T06:45:43;2.97;;;2.17;;
19554;SDS011;9924;50.828;6.440;2023-07-29T06:48:09;2.78;;;2.47;;
19554;SDS011;9924;50.828;6.440;2023-07-29T06:50:34;2.55;;;2.30;;
19554;SDS011;9924;50.828;6.440;2023-07-29T06:53:00;3.33;;;2.05;;
19554;SDS011;9924;50.828;6.440;2023-07-29T06:55:26;2.22;;;1.88;;
19554;SDS011;9924;50.828;6.440;2023-07-29T06:57:51;4.78;;;2.22;;
19554;SDS011;9924;50.828;6.440;2023-07-29T07:00:17;4.03;;;1.98;;
19554;SDS011;9924;50.828;6.440;2023-07-29T07:02:43;2.47;;;2.22;;
19554;SDS011;9924;50.828;6.440;2023-07-29T07:05:08;6.10;;;2.05;;
19554;SDS011;9924;50.828;6.440;2023-07-29T07:07:34;3.38;;;1.98;;
19554;SDS011;9924;50.828;6.440;2023-07-29T07:10:00;5.28;;;2.08;;
19554;SDS011;9924;50.828;6.440;2023-07-29T07:12:26;3.95;;;1.88;;
19554;SDS011;9924;50.828;6.440;2023-07-29T07:14:51;3.08;;;1.50;;
19554;SDS011;9924;50.828;6.440;2023-07-29T07:17:17;3.10;;;1.73;;
19554;SDS011;9924;50.828;6.440;2023-07-29T07:19:43;2.17;;;1.60;;
19554;SDS011;9924;50.828;6.440;2023-07-29T07:22:09;5.38;;;1.63;;
19554;SDS011;9924;50.828;6.440;2023-07-29T07:24:34;2.83;;;1.70;;
19554;SDS011;9924;50.828;6.440;2023-07-29T07:27:00;4.22;;;1.45;;
19554;SDS011;9924;50.828;6.440;2023-07-29T07:29:26;4.28;;;1.92;;
19554;SDS011;9924;50.828;6.440;2023-07-29T07:31:52;3.40;;;1.70;;
19554;SDS011;9924;50.828;6.440;2023-07-29T07:34:19;2.80;;;1.60;;
19554;SDS011;9924;50.828;6.440;2023-07-29T07:36:45;3.75;;;1.42;;
19554;SDS011;9924;50.828;6.440;2023-07-29T07:39:11;5.38;;;1.70;;
19554;SDS011;9924;50.828;6.440;2023-07-29T07:41:37;2.97;;;1.58;;
19554;SDS011;9924;50.828;6.440;2023-07-29T07:44:03;1.90;;;1.40;;
19554;SDS011;9924;50.828;6.440;2023-07-29T07:46:28;2.63;;;1.23;;
19554;SDS011;9924;50.828;6.440;2023-07-29T07:48:54;3.15;;;1.58;;
19554;SDS011;9924;50.828;6.440;2023-07-29T07:51:20;1.80;;;1.35;;
19554;SDS011;9924;50.828;6.440;2023-07-29T07:53:45;3.13;;;1.40;;
19554;SDS011;9924;50.828;6.440;2023-07-29T07:56:13;1.77;;;1.23;;
19554;SDS011;9924;50.828;6.440;2023-07-29T07:58:40;3.40;;;1.25;;
19554;SDS011;9924;50.828;6.440;2023-07-29T08:01:06;2.33;;;1.30;;
19554;SDS011;9924;50.828;6.440;2023-07-29T08:03:33;1.92;;;1.35;;
19554;SDS011;9924;50.828;6.440;2023-07-29T08:06:00;2.92;;;1.45;;
19554;SDS011;9924;50.828;6.440;2023-07-29T08:08:26;1.35;;;1.10;;
19554;SDS011;9924;50.828;6.440;2023-07-29T08:10:53;2.85;;;1.48;;
19554;SDS011;9924;50.828;6.440;2023-07-29T08:13:19;2.28;;;1.17;;
19554;SDS011;9924;50.828;6.440;2023-07-29T08:15:49;1.75;;;1.13;;
19554;SDS011;9924;50.828;6.440;2023-07-29T08:18:17;2.60;;;1.13;;
19554;SDS011;9924;50.828;6.440;2023-07-29T08:20:57;1.83;;;1.08;;
19554;SDS011;9924;50.828;6.440;2023-07-29T08:23:28;1.30;;;1.13;;
19554;SDS011;9924;50.828;6.440;2023-07-29T08:25:58;3.33;;;1.00;;
19554;SDS011;9924;50.828;6.440;2023-07-29T08:28:29;6.75;;;1.30;;
19554;SDS011;9924;50.828;6.440;2023-07-29T08:31:02;2.92;;;1.20;;
19554;SDS011;9924;50.828;6.440;2023-07-29T08:33:28;1.65;;;1.00;;
19554;SDS011;9924;50.828;6.440;2023-07-29T08:35:54;2.25;;;1.30;;
19554;SDS011;9924;50.828;6.440;2023-07-29T08:38:20;1.38;;;1.10;;
19554;SDS011;9924;50.828;6.440;2023-07-29T08:40:56;2.88;;;1.55;;
19554;SDS011;9924;50.828;6.440;2023-07-29T08:43:27;1.08;;;0.98;;
19554;SDS011;9924;50.828;6.440;2023-07-29T08:45:57;1.65;;;1.20;;
19554;SDS011;9924;50.828;6.440;2023-07-29T08:51:07;1.63;;;1.33;;
19554;SDS011;9924;50.828;6.440;2023-07-29T08:53:35;2.60;;;1.10;;
19554;SDS011;9924;50.828;6.440;2023-07-29T08:56:02;1.38;;;0.95;;
19554;SDS011;9924;50.828;6.440;2023-07-29T08:58:28;5.47;;;1.40;;
19554;SDS011;9924;50.828;6.440;2023-07-29T09:00:54;4.13;;;0.85;;
19554;SDS011;9924;50.828;6.440;2023-07-29T09:03:20;3.08;;;0.98;;
19554;SDS011;9924;50.828;6.440;2023-07-29T09:05:46;2.42;;;1.00;;
19554;SDS011;9924;50.828;6.440;2023-07-29T09:08:13;4.15;;;1.10;;
19554;SDS011;9924;50.828;6.440;2023-07-29T09:10:39;1.58;;;1.10;;
19554;SDS011;9924;50.828;6.440;2023-07-29T09:13:05;2.78;;;0.85;;
19554;SDS011;9924;50.828;6.440;2023-07-29T09:15:32;1.05;;;0.88;;
19554;SDS011;9924;50.828;6.440;2023-07-29T09:18:08;2.78;;;0.90;;
19554;SDS011;9924;50.828;6.440;2023-07-29T09:20:39;1.70;;;1.15;;
19554;SDS011;9924;50.828;6.440;2023-07-29T09:23:07;2.92;;;1.10;;
19554;SDS011;9924;50.828;6.440;2023-07-29T09:25:35;2.03;;;1.00;;
19554;SDS011;9924;50.828;6.440;2023-07-29T09:28:02;1.40;;;0.88;;
19554;SDS011;9924;50.828;6.440;2023-07-29T09:30:33;2.05;;;1.17;;
19554;SDS011;9924;50.828;6.440;2023-07-29T09:32:59;2.25;;;1.20;;
19554;SDS011;9924;50.828;6.440;2023-07-29T09:35:27;1.80;;;1.00;;
19554;SDS011;9924;50.828;6.440;2023-07-29T09:37:53;2.03;;;1.05;;
19554;SDS011;9924;50.828;6.440;2023-07-29T09:40:19;1.30;;;1.02;;
19554;SDS011;9924;50.828;6.440;2023-07-29T09:42:51;8.13;;;1.23;;
19554;SDS011;9924;50.828;6.440;2023-07-29T09:45:25;1.17;;;1.08;;
19554;SDS011;9924;50.828;6.440;2023-07-29T09:47:53;1.85;;;1.10;;
19554;SDS011;9924;50.828;6.440;2023-07-29T09:50:23;1.27;;;1.17;;
19554;SDS011;9924;50.828;6.440;2023-07-29T09:52:50;1.80;;;1.10;;
19554;SDS011;9924;50.828;6.440;2023-07-29T09:55:20;3.40;;;1.50;;
19554;SDS011;9924;50.828;6.440;2023-07-29T09:57:52;2.80;;;1.30;;
19554;SDS011;9924;50.828;6.440;2023-07-29T10:00:23;2.47;;;1.40;;
19554;SDS011;9924;50.828;6.440;2023-07-29T10:02:49;2.80;;;1.23;;
19554;SDS011;9924;50.828;6.440;2023-07-29T10:05:16;1.60;;;1.38;;
19554;SDS011;9924;50.828;6.440;2023-07-29T10:07:42;1.65;;;1.35;;
19554;SDS011;9924;50.828;6.440;2023-07-29T10:10:08;2.63;;;1.17;;
19554;SDS011;9924;50.828;6.440;2023-07-29T10:12:34;2.17;;;1.40;;
19554;SDS011;9924;50.828;6.440;2023-07-29T10:15:02;1.95;;;1.10;;
19554;SDS011;9924;50.828;6.440;2023-07-29T10:17:29;3.13;;;1.38;;
19554;SDS011;9924;50.828;6.440;2023-07-29T10:19:56;2.78;;;1.20;;
19554;SDS011;9924;50.828;6.440;2023-07-29T10:22:28;2.17;;;1.13;;
19554;SDS011;9924;50.828;6.440;2023-07-29T10:25:03;1.60;;;1.35;;
19554;SDS011;9924;50.828;6.440;2023-07-29T10:27:34;2.60;;;1.25;;
19554;SDS011;9924;50.828;6.440;2023-07-29T10:30:07;1.40;;;1.30;;
19554;SDS011;9924;50.828;6.440;2023-07-29T10:32:33;1.33;;;1.20;;
19554;SDS011;9924;50.828;6.440;2023-07-29T10:35:00;1.55;;;1.33;;
19554;SDS011;9924;50.828;6.440;2023-07-29T10:37:26;1.63;;;1.30;;
19554;SDS011;9924;50.828;6.440;2023-07-29T10:39:53;2.92;;;1.20;;
19554;SDS011;9924;50.828;6.440;2023-07-29T10:42:20;3.50;;;1.10;;
19554;SDS011;9924;50.828;6.440;2023-07-29T10:44:46;4.38;;;1.30;;
19554;SDS011;9924;50.828;6.440;2023-07-29T10:47:20;3.08;;;1.10;;
19554;SDS011;9924;50.828;6.440;2023-07-29T10:49:53;1.92;;;1.00;;
19554;SDS011;9924;50.828;6.440;2023-07-29T10:55:02;2.13;;;1.15;;
19554;SDS011;9924;50.828;6.440;2023-07-29T10:57:36;3.40;;;1.30;;
19554;SDS011;9924;50.828;6.440;2023-07-29T11:00:03;2.05;;;0.90;;
19554;SDS011;9924;50.828;6.440;2023-07-29T11:02:31;2.35;;;1.25;;
19554;SDS011;9924;50.828;6.440;2023-07-29T11:04:58;1.60;;;1.02;;
19554;SDS011;9924;50.828;6.440;2023-07-29T11:07:27;2.70;;;1.05;;
19554;SDS011;9924;50.828;6.440;2023-07-29T11:17:51;3.00;;;1.20;;
19554;SDS011;9924;50.828;6.440;2023-07-29T11:20:22;7.63;;;1.30;;
19554;SDS011;9924;50.828;6.440;2023-07-29T11:22:49;2.70;;;1.27;;
19554;SDS011;9924;50.828;6.440;2023-07-29T11:25:16;3.92;;;1.42;;
19554;SDS011;9924;50.828;6.440;2023-07-29T11:27:43;2.45;;;1.00;;
19554;SDS011;9924;50.828;6.440;2023-07-29T11:30:10;3.88;;;1.20;;
19554;SDS011;9924;50.828;6.440;2023-07-29T11:32:38;2.20;;;1.00;;
19554;SDS011;9924;50.828;6.440;2023-07-29T11:35:11;2.08;;;1.05;;
19554;SDS011;9924;50.828;6.440;2023-07-29T11:37:40;1.30;;;1.08;;
19554;SDS011;9924;50.828;6.440;2023-07-29T11:40:07;1.13;;;0.80;;
19554;SDS011;9924;50.828;6.440;2023-07-29T11:42:36;2.67;;;1.20;;
19554;SDS011;9924;50.828;6.440;2023-07-29T11:45:02;2.13;;;1.00;;
19554;SDS011;9924;50.828;6.440;2023-07-29T11:47:30;1.45;;;1.15;;
19554;SDS011;9924;50.828;6.440;2023-07-29T11:49:59;1.15;;;1.05;;
19554;SDS011;9924;50.828;6.440;2023-07-29T11:52:28;1.40;;;1.30;;
19554;SDS011;9924;50.828;6.440;2023-07-29T11:54:56;1.15;;;0.90;;
19554;SDS011;9924;50.828;6.440;2023-07-29T11:57:22;1.45;;;1.20;;
19554;SDS011;9924;50.828;6.440;2023-07-29T11:59:49;1.50;;;1.05;;
19554;SDS011;9924;50.828;6.440;2023-07-29T12:02:15;1.33;;;1.00;;
19554;SDS011;9924;50.828;6.440;2023-07-29T12:04:42;1.75;;;1.42;;
19554;SDS011;9924;50.828;6.440;2023-07-29T12:07:12;1.25;;;0.98;;
19554;SDS011;9924;50.828;6.440;2023-07-29T12:09:38;2.08;;;0.95;;
19554;SDS011;9924;50.828;6.440;2023-07-29T12:12:05;1.73;;;1.10;;
19554;SDS011;9924;50.828;6.440;2023-07-29T12:14:31;1.65;;;1.10;;
19554;SDS011;9924;50.828;6.440;2023-07-29T12:17:01;1.10;;;1.00;;
19554;SDS011;9924;50.828;6.440;2023-07-29T12:19:34;1.85;;;1.30;;
19554;SDS011;9924;50.828;6.440;2023-07-29T12:22:05;1.20;;;0.95;;
19554;SDS011;9924;50.828;6.440;2023-07-29T12:24:33;5.30;;;1.20;;
19554;SDS011;9924;50.828;6.440;2023-07-29T12:27:01;1.50;;;1.27;;
19554;SDS011;9924;50.828;6.440;2023-07-29T12:29:27;1.98;;;1.10;;
19554;SDS011;9924;50.828;6.440;2023-07-29T12:31:59;1.50;;;1.27;;
19554;SDS011;9924;50.828;6.440;2023-07-29T12:34:27;1.27;;;0.93;;
19554;SDS011;9924;50.828;6.440;2023-07-29T12:36:54;1.42;;;1.30;;
19554;SDS011;9924;50.828;6.440;2023-07-29T12:39:26;1.42;;;0.95;;
19554;SDS011;9924;50.828;6.440;2023-07-29T12:41:54;1.48;;;1.20;;
19554;SDS011;9924;50.828;6.440;2023-07-29T12:44:25;1.40;;;1.00;;
19554;SDS011;9924;50.828;6.440;2023-07-29T12:46:54;1.30;;;1.20;;
19554;SDS011;9924;50.828;6.440;2023-07-29T12:49:20;1.92;;;1.13;;
19554;SDS011;9924;50.828;6.440;2023-07-29T12:51:47;4.53;;;1.20;;
19554;SDS011;9924;50.828;6.440;2023-07-29T12:54:13;1.65;;;1.30;;
19554;SDS011;9924;50.828;6.440;2023-07-29T12:56:39;1.90;;;1.38;;
19554;SDS011;9924;50.828;6.440;2023-07-29T12:59:05;2.28;;;1.30;;
19554;SDS011;9924;50.828;6.440;2023-07-29T13:01:31;1.85;;;1.30;;
19554;SDS011;9924;50.828;6.440;2023-07-29T13:03:57;3.15;;;1.35;;
19554;SDS011;9924;50.828;6.440;2023-07-29T13:06:23;1.80;;;1.40;;
19554;SDS011;9924;50.828;6.440;2023-07-29T13:08:49;3.78;;;1.60;;
19554;SDS011;9924;50.828;6.440;2023-07-29T13:11:15;3.38;;;1.60;;
19554;SDS011;9924;50.828;6.440;2023-07-29T13:13:43;2.25;;;1.40;;
19554;SDS011;9924;50.828;6.440;2023-07-29T13:16:10;3.15;;;1.55;;
19554;SDS011;9924;50.828;6.440;2023-07-29T13:18:37;4.85;;;2.10;;
19554;SDS011;9924;50.828;6.440;2023-07-29T13:21:03;3.45;;;2.00;;
19554;SDS011;9924;50.828;6.440;2023-07-29T13:23:28;5.32;;;1.80;;
19554;SDS011;9924;50.828;6.440;2023-07-29T13:25:56;2.85;;;1.70;;
19554;SDS011;9924;50.828;6.440;2023-07-29T13:28:24;4.53;;;1.83;;
19554;SDS011;9924;50.828;6.440;2023-07-29T13:30:50;2.33;;;1.73;;
19554;SDS011;9924;50.828;6.440;2023-07-29T13:33:15;4.57;;;1.75;;
19554;SDS011;9924;50.828;6.440;2023-07-29T13:35:41;2.50;;;2.00;;
19554;SDS011;9924;50.828;6.440;2023-07-29T13:38:07;2.10;;;1.90;;
19554;SDS011;9924;50.828;6.440;2023-07-29T13:40:34;2.75;;;1.60;;
19554;SDS011;9924;50.828;6.440;2023-07-29T13:43:00;2.63;;;1.90;;
19554;SDS011;9924;50.828;6.440;2023-07-29T13:45:26;3.88;;;2.30;;
19554;SDS011;9924;50.828;6.440;2023-07-29T13:47:55;3.58;;;2.47;;
19554;SDS011;9924;50.828;6.440;2023-07-29T13:50:21;5.43;;;2.33;;
19554;SDS011;9924;50.828;6.440;2023-07-29T13:52:46;2.67;;;2.38;;
19554;SDS011;9924;50.828;6.440;2023-07-29T13:55:12;3.25;;;2.33;;
19554;SDS011;9924;50.828;6.440;2023-07-29T13:57:38;3.55;;;2.35;;
19554;SDS011;9924;50.828;6.440;2023-07-29T14:00:05;2.10;;;1.70;;
19554;SDS011;9924;50.828;6.440;2023-07-29T14:02:32;2.53;;;2.10;;
19554;SDS011;9924;50.828;6.440;2023-07-29T14:04:57;3.13;;;2.05;;
19554;SDS011;9924;50.828;6.440;2023-07-29T14:07:23;3.03;;;1.75;;
19554;SDS011;9924;50.828;6.440;2023-07-29T14:09:48;2.67;;;1.63;;
19554;SDS011;9924;50.828;6.440;2023-07-29T14:12:15;3.30;;;1.85;;
19554;SDS011;9924;50.828;6.440;2023-07-29T14:14:43;2.80;;;1.90;;
19554;SDS011;9924;50.828;6.440;2023-07-29T14:17:09;2.80;;;2.00;;
19554;SDS011;9924;50.828;6.440;2023-07-29T14:19:35;3.08;;;1.90;;
19554;SDS011;9924;50.828;6.440;2023-07-29T14:22:01;3.50;;;1.98;;
19554;SDS011;9924;50.828;6.440;2023-07-29T14:24:28;2.78;;;1.83;;
19554;SDS011;9924;50.828;6.440;2023-07-29T14:26:54;3.38;;;1.98;;
19554;SDS011;9924;50.828;6.440;2023-07-29T14:29:19;2.40;;;2.00;;
19554;SDS011;9924;50.828;6.440;2023-07-29T14:31:45;3.88;;;2.17;;
19554;SDS011;9924;50.828;6.440;2023-07-29T14:34:11;2.15;;;1.67;;
19554;SDS011;9924;50.828;6.440;2023-07-29T14:36:36;3.47;;;2.00;;
19554;SDS011;9924;50.828;6.440;2023-07-29T14:39:02;3.08;;;1.70;;
19554;SDS011;9924;50.828;6.440;2023-07-29T14:41:29;2.72;;;1.65;;
19554;SDS011;9924;50.828;6.440;2023-07-29T14:43:55;2.47;;;2.28;;
19554;SDS011;9924;50.828;6.440;2023-07-29T14:46:21;3.28;;;1.70;;
19554;SDS011;9924;50.828;6.440;2023-07-29T14:48:46;2.75;;;1.60;;
19554;SDS011;9924;50.828;6.440;2023-07-29T14:51:12;2.50;;;1.67;;
19554;SDS011;9924;50.828;6.440;2023-07-29T14:53:38;2.75;;;1.80;;
19554;SDS011;9924;50.828;6.440;2023-07-29T14:56:04;2.25;;;1.60;;
19554;SDS011;9924;50.828;6.440;2023-07-29T14:58:30;4.07;;;1.65;;
19554;SDS011;9924;50.828;6.440;2023-07-29T15:00:56;4.35;;;1.58;;
19554;SDS011;9924;50.828;6.440;2023-07-29T15:03:23;2.75;;;1.70;;
19554;SDS011;9924;50.828;6.440;2023-07-29T15:05:49;2.50;;;1.30;;
19554;SDS011;9924;50.828;6.440;2023-07-29T15:08:15;2.03;;;1.63;;
19554;SDS011;9924;50.828;6.440;2023-07-29T15:10:44;2.75;;;1.67;;
19554;SDS011;9924;50.828;6.440;2023-07-29T15:13:11;2.45;;;1.55;;
19554;SDS011;9924;50.828;6.440;2023-07-29T15:15:40;2.88;;;1.90;;